sensor_id;sensor_type;location;lat;lon;timestamp;pressure;altitude;pressure_sealevel;temperature;humidity
55486;BME280;49383;-25.924;28.194;2023-04-23T00:01:04;85016.30;;;23.87;30.21
55486;BME280;49383;-25.924;28.194;2023-04-23T00:03:30;85018.07;;;23.42;30.27
55486;BME280;49383;-25.924;28.194;2023-04-23T00:05:57;85020.65;;;23.86;30.23
55486;BME280;49383;-25.924;28.194;2023-04-23T00:08:20;85019.12;;;23.63;30.25
55486;BME280;49383;-25.924;28.194;2023-04-23T00:10:46;85017.37;;;23.62;30.24
55486;BME280;49383;-25.924;28.194;2023-04-23T00:13:11;85014.95;;;23.62;30.23
55486;BME280;49383;-25.924;28.194;2023-04-23T00:15:37;85013.72;;;23.62;30.26
55486;BME280;49383;-25.924;28.194;2023-04-23T00:18:03;85012.83;;;23.83;30.27
55486;BME280;49383;-25.924;28.194;2023-04-23T00:20:28;85010.20;;;23.83;30.19
55486;BME280;49383;-25.924;28.194;2023-04-23T00:22:54;85008.38;;;23.59;30.27
55486;BME280;49383;-25.924;28.194;2023-04-23T00:25:20;85007.96;;;23.81;30.26
55486;BME280;49383;-25.924;28.194;2023-04-23T00:27:45;85003.70;;;23.81;30.27
55486;BME280;49383;-25.924;28.194;2023-04-23T00:30:11;85003.92;;;23.80;30.26
55486;BME280;49383;-25.924;28.194;2023-04-23T00:32:37;85003.36;;;23.79;30.27
55486;BME280;49383;-25.924;28.194;2023-04-23T00:35:01;85001.43;;;23.56;30.29
55486;BME280;49383;-25.924;28.194;2023-04-23T00:37:29;85000.00;;;23.79;30.28
55486;BME280;49383;-25.924;28.194;2023-04-23T00:39:51;84992.55;;;23.77;30.29
55486;BME280;49383;-25.924;28.194;2023-04-23T00:42:18;84987.87;;;23.77;30.27
55486;BME280;49383;-25.924;28.194;2023-04-23T00:44:43;84986.27;;;23.77;30.26
55486;BME280;49383;-25.924;28.194;2023-04-23T00:47:09;84987.54;;;23.76;30.31
55486;BME280;49383;-25.924;28.194;2023-04-23T00:49:33;84983.98;;;23.76;30.30
55486;BME280;49383;-25.924;28.194;2023-04-23T00:51:59;84980.97;;;23.53;30.26
55486;BME280;49383;-25.924;28.194;2023-04-23T00:54:24;84980.28;;;23.75;30.27
55486;BME280;49383;-25.924;28.194;2023-04-23T00:56:50;84979.87;;;23.74;30.29
55486;BME280;49383;-25.924;28.194;2023-04-23T00:59:16;84976.68;;;23.74;30.30
55486;BME280;49383;-25.924;28.194;2023-04-23T01:01:42;84972.77;;;23.73;30.29
55486;BME280;49383;-25.924;28.194;2023-04-23T01:04:07;84970.37;;;23.72;30.27
55486;BME280;49383;-25.924;28.194;2023-04-23T01:06:33;84967.73;;;23.73;30.28
55486;BME280;49383;-25.924;28.194;2023-04-23T01:08:58;84967.67;;;23.73;30.27
55486;BME280;49383;-25.924;28.194;2023-04-23T01:11:23;84969.62;;;23.72;30.30
55486;BME280;49383;-25.924;28.194;2023-04-23T01:13:50;84968.72;;;23.49;30.29
55486;BME280;49383;-25.924;28.194;2023-04-23T01:16:15;84969.56;;;23.71;30.25
55486;BME280;49383;-25.924;28.194;2023-04-23T01:18:40;84971.23;;;23.70;30.22
55486;BME280;49383;-25.924;28.194;2023-04-23T01:21:05;84970.51;;;23.54;30.16
55486;BME280;49383;-25.924;28.194;2023-04-23T01:23:30;84972.72;;;23.82;30.09
55486;BME280;49383;-25.924;28.194;2023-04-23T01:25:56;84967.04;;;23.84;30.10
55486;BME280;49383;-25.924;28.194;2023-04-23T01:28:22;84964.58;;;23.85;30.03
55486;BME280;49383;-25.924;28.194;2023-04-23T01:30:47;84960.29;;;23.63;30.06
55486;BME280;49383;-25.924;28.194;2023-04-23T01:33:12;84959.60;;;23.78;30.12
55486;BME280;49383;-25.924;28.194;2023-04-23T01:35:37;84958.40;;;23.50;30.19
55486;BME280;49383;-25.924;28.194;2023-04-23T01:38:03;84960.23;;;23.69;30.16
55486;BME280;49383;-25.924;28.194;2023-04-23T01:40:28;84962.02;;;23.45;30.15
55486;BME280;49383;-25.924;28.194;2023-04-23T01:42:53;84964.75;;;23.66;30.16
55486;BME280;49383;-25.924;28.194;2023-04-23T01:45:19;84962.29;;;23.42;30.18
55486;BME280;49383;-25.924;28.194;2023-04-23T01:47:45;84963.68;;;23.64;30.15
55486;BME280;49383;-25.924;28.194;2023-04-23T01:50:10;84965.06;;;23.41;30.23
55486;BME280;49383;-25.924;28.194;2023-04-23T01:52:35;84966.25;;;23.63;30.23
55486;BME280;49383;-25.924;28.194;2023-04-23T01:55:00;84963.59;;;23.63;30.21
55486;BME280;49383;-25.924;28.194;2023-04-23T01:57:26;84961.65;;;23.40;30.20
55486;BME280;49383;-25.924;28.194;2023-04-23T01:59:51;84962.48;;;23.62;30.20
55486;BME280;49383;-25.924;28.194;2023-04-23T02:02:16;84960.66;;;23.62;30.18
55486;BME280;49383;-25.924;28.194;2023-04-23T02:04:44;84957.26;;;23.61;30.17
55486;BME280;49383;-25.924;28.194;2023-04-23T02:07:07;84956.60;;;23.60;30.18
55486;BME280;49383;-25.924;28.194;2023-04-23T02:09:32;84953.03;;;23.37;30.18
55486;BME280;49383;-25.924;28.194;2023-04-23T02:11:57;84952.08;;;23.59;30.13
55486;BME280;49383;-25.924;28.194;2023-04-23T02:14:22;84951.44;;;23.58;30.15
55486;BME280;49383;-25.924;28.194;2023-04-23T02:16:48;84951.80;;;23.58;30.18
55486;BME280;49383;-25.924;28.194;2023-04-23T02:19:13;84952.89;;;23.58;30.16
55486;BME280;49383;-25.924;28.194;2023-04-23T02:21:39;84952.37;;;23.57;30.16
55486;BME280;49383;-25.924;28.194;2023-04-23T02:24:04;84950.84;;;23.57;30.16
55486;BME280;49383;-25.924;28.194;2023-04-23T02:26:30;84950.87;;;23.34;30.16
55486;BME280;49383;-25.924;28.194;2023-04-23T02:28:55;84951.00;;;23.35;30.14
55486;BME280;49383;-25.924;28.194;2023-04-23T02:31:19;84948.96;;;23.57;30.11
55486;BME280;49383;-25.924;28.194;2023-04-23T02:33:44;84946.99;;;23.34;30.13
55486;BME280;49383;-25.924;28.194;2023-04-23T02:36:10;84946.60;;;23.56;30.11
55486;BME280;49383;-25.924;28.194;2023-04-23T02:38:34;84948.66;;;23.55;30.10
55486;BME280;49383;-25.924;28.194;2023-04-23T02:41:00;84946.74;;;23.55;30.08
55486;BME280;49383;-25.924;28.194;2023-04-23T02:43:25;84946.86;;;23.54;30.11
55486;BME280;49383;-25.924;28.194;2023-04-23T02:45:51;84944.40;;;23.31;30.08
55486;BME280;49383;-25.924;28.194;2023-04-23T02:48:16;84945.15;;;23.53;30.12
55486;BME280;49383;-25.924;28.194;2023-04-23T02:50:41;84944.69;;;23.79;30.13
55486;BME280;49383;-25.924;28.194;2023-04-23T02:53:07;84947.88;;;23.30;30.05
55486;BME280;49383;-25.924;28.194;2023-04-23T02:55:32;84956.61;;;23.52;30.10
55486;BME280;49383;-25.924;28.194;2023-04-23T02:57:57;84959.12;;;23.51;30.08
55486;BME280;49383;-25.924;28.194;2023-04-23T03:00:23;84965.22;;;23.51;30.07
55486;BME280;49383;-25.924;28.194;2023-04-23T03:02:48;84965.18;;;23.06;30.08
55486;BME280;49383;-25.924;28.194;2023-04-23T03:05:13;84965.91;;;23.51;30.07
55486;BME280;49383;-25.924;28.194;2023-04-23T03:07:38;84967.36;;;23.27;30.08
55486;BME280;49383;-25.924;28.194;2023-04-23T03:10:04;84969.59;;;23.48;30.06
55486;BME280;49383;-25.924;28.194;2023-04-23T03:12:28;84971.85;;;23.48;30.06
55486;BME280;49383;-25.924;28.194;2023-04-23T03:14:54;84975.13;;;23.47;30.03
55486;BME280;49383;-25.924;28.194;2023-04-23T03:17:19;84978.95;;;23.47;29.99
55486;BME280;49383;-25.924;28.194;2023-04-23T03:19:44;84989.15;;;23.47;29.97
55486;BME280;49383;-25.924;28.194;2023-04-23T03:22:09;84993.88;;;23.46;29.99
55486;BME280;49383;-25.924;28.194;2023-04-23T03:24:34;84993.54;;;23.46;29.96
55486;BME280;49383;-25.924;28.194;2023-04-23T03:27:00;84990.86;;;23.24;29.94
55486;BME280;49383;-25.924;28.194;2023-04-23T03:29:25;84988.95;;;23.23;29.95
55486;BME280;49383;-25.924;28.194;2023-04-23T03:31:52;84987.39;;;23.22;29.93
55486;BME280;49383;-25.924;28.194;2023-04-23T03:34:16;84988.12;;;23.43;29.99
55486;BME280;49383;-25.924;28.194;2023-04-23T03:36:41;84990.26;;;23.42;29.97
55486;BME280;49383;-25.924;28.194;2023-04-23T03:39:06;84993.84;;;23.42;30.00
55486;BME280;49383;-25.924;28.194;2023-04-23T03:41:31;84991.62;;;23.41;30.01
55486;BME280;49383;-25.924;28.194;2023-04-23T03:43:56;84993.28;;;23.40;30.03
55486;BME280;49383;-25.924;28.194;2023-04-23T03:46:22;84994.73;;;23.39;30.04
55486;BME280;49383;-25.924;28.194;2023-04-23T03:48:47;84995.72;;;23.38;30.01
55486;BME280;49383;-25.924;28.194;2023-04-23T03:51:13;84994.09;;;23.65;29.98
55486;BME280;49383;-25.924;28.194;2023-04-23T03:53:38;84999.81;;;23.39;29.98
55486;BME280;49383;-25.924;28.194;2023-04-23T03:56:03;85001.52;;;23.39;29.97
55486;BME280;49383;-25.924;28.194;2023-04-23T03:58:28;85000.54;;;23.38;29.98
55486;BME280;49383;-25.924;28.194;2023-04-23T04:00:54;85000.13;;;23.37;29.97
55486;BME280;49383;-25.924;28.194;2023-04-23T04:03:20;85001.93;;;23.36;29.97
55486;BME280;49383;-25.924;28.194;2023-04-23T04:05:45;85005.27;;;23.35;29.99
55486;BME280;49383;-25.924;28.194;2023-04-23T04:08:15;85009.59;;;23.35;29.98
55486;BME280;49383;-25.924;28.194;2023-04-23T04:10:41;85013.03;;;23.34;29.98
55486;BME280;49383;-25.924;28.194;2023-04-23T04:13:01;85016.19;;;23.34;29.96
55486;BME280;49383;-25.924;28.194;2023-04-23T04:15:27;85021.36;;;23.33;30.01
55486;BME280;49383;-25.924;28.194;2023-04-23T04:17:52;85024.95;;;23.32;30.02
55486;BME280;49383;-25.924;28.194;2023-04-23T04:20:19;85027.14;;;23.32;29.96
55486;BME280;49383;-25.924;28.194;2023-04-23T04:22:42;85032.76;;;23.08;29.96
55486;BME280;49383;-25.924;28.194;2023-04-23T04:25:08;85037.29;;;23.30;30.01
55486;BME280;49383;-25.924;28.194;2023-04-23T04:27:33;85039.49;;;23.30;30.05
55486;BME280;49383;-25.924;28.194;2023-04-23T04:29:58;85044.05;;;23.29;30.01
55486;BME280;49383;-25.924;28.194;2023-04-23T04:32:23;85041.09;;;23.28;30.03
55486;BME280;49383;-25.924;28.194;2023-04-23T04:34:48;85034.59;;;23.28;29.96
55486;BME280;49383;-25.924;28.194;2023-04-23T04:37:13;85036.78;;;23.28;29.98
55486;BME280;49383;-25.924;28.194;2023-04-23T04:39:39;85044.66;;;23.27;30.02
55486;BME280;49383;-25.924;28.194;2023-04-23T04:42:05;85050.58;;;23.27;30.04
55486;BME280;49383;-25.924;28.194;2023-04-23T04:44:33;85054.78;;;23.07;30.04
55486;BME280;49383;-25.924;28.194;2023-04-23T04:46:55;85055.98;;;23.31;30.02
55486;BME280;49383;-25.924;28.194;2023-04-23T04:49:21;85059.19;;;23.34;29.99
55486;BME280;49383;-25.924;28.194;2023-04-23T04:51:46;85063.53;;;23.14;30.06
55486;BME280;49383;-25.924;28.194;2023-04-23T04:54:11;85066.08;;;23.40;30.15
55486;BME280;49383;-25.924;28.194;2023-04-23T04:56:37;85066.35;;;23.47;30.26
55486;BME280;49383;-25.924;28.194;2023-04-23T04:59:03;85073.35;;;23.52;30.11
55486;BME280;49383;-25.924;28.194;2023-04-23T05:01:28;85068.76;;;23.55;30.09
55486;BME280;49383;-25.924;28.194;2023-04-23T05:03:53;85067.36;;;23.39;29.92
55486;BME280;49383;-25.924;28.194;2023-04-23T05:06:18;85068.18;;;23.44;29.84
55486;BME280;49383;-25.924;28.194;2023-04-23T05:08:44;85066.30;;;23.26;29.86
55486;BME280;49383;-25.924;28.194;2023-04-23T05:11:10;85066.10;;;23.32;29.59
55486;BME280;49383;-25.924;28.194;2023-04-23T05:13:35;85068.79;;;23.60;29.60
55486;BME280;49383;-25.924;28.194;2023-04-23T05:16:01;85068.81;;;23.43;29.46
55486;BME280;49383;-25.924;28.194;2023-04-23T05:18:27;85072.85;;;23.74;29.47
55486;BME280;49383;-25.924;28.194;2023-04-23T05:20:52;85073.89;;;23.67;29.35
55486;BME280;49383;-25.924;28.194;2023-04-23T05:23:21;85077.11;;;23.77;29.14
55486;BME280;49383;-25.924;28.194;2023-04-23T05:25:42;85080.03;;;23.85;29.22
55486;BME280;49383;-25.924;28.194;2023-04-23T05:28:07;85081.33;;;23.93;28.92
55486;BME280;49383;-25.924;28.194;2023-04-23T05:30:32;85086.60;;;23.92;29.15
55486;BME280;49383;-25.924;28.194;2023-04-23T05:32:58;85086.64;;;23.92;28.98
55486;BME280;49383;-25.924;28.194;2023-04-23T05:35:23;85093.51;;;23.95;28.96
55486;BME280;49383;-25.924;28.194;2023-04-23T05:37:48;85096.12;;;23.99;28.88
55486;BME280;49383;-25.924;28.194;2023-04-23T05:40:13;85099.70;;;23.55;28.96
55486;BME280;49383;-25.924;28.194;2023-04-23T05:42:39;85098.28;;;23.91;28.94
55486;BME280;49383;-25.924;28.194;2023-04-23T05:45:06;85099.51;;;24.03;28.77
55486;BME280;49383;-25.924;28.194;2023-04-23T05:47:30;85105.87;;;23.85;28.82
55486;BME280;49383;-25.924;28.194;2023-04-23T05:49:55;85110.56;;;24.16;28.87
55486;BME280;49383;-25.924;28.194;2023-04-23T05:52:21;85113.67;;;24.25;28.96
55486;BME280;49383;-25.924;28.194;2023-04-23T05:54:47;85115.35;;;24.35;28.86
55486;BME280;49383;-25.924;28.194;2023-04-23T05:57:13;85117.03;;;24.42;28.76
55486;BME280;49383;-25.924;28.194;2023-04-23T05:59:39;85114.56;;;24.25;28.72
55486;BME280;49383;-25.924;28.194;2023-04-23T06:02:04;85112.30;;;24.35;28.75
55486;BME280;49383;-25.924;28.194;2023-04-23T06:04:29;85112.05;;;24.38;28.66
55486;BME280;49383;-25.924;28.194;2023-04-23T06:06:55;85114.12;;;24.47;28.67
55486;BME280;49383;-25.924;28.194;2023-04-23T06:09:21;85116.66;;;24.51;28.69
55486;BME280;49383;-25.924;28.194;2023-04-23T06:11:47;85121.74;;;24.58;28.58
55486;BME280;49383;-25.924;28.194;2023-04-23T06:14:12;85124.76;;;24.63;28.58
55486;BME280;49383;-25.924;28.194;2023-04-23T06:16:38;85129.81;;;24.70;28.57
55486;BME280;49383;-25.924;28.194;2023-04-23T06:19:03;85135.33;;;24.52;28.54
55486;BME280;49383;-25.924;28.194;2023-04-23T06:21:30;85139.35;;;24.53;28.53
55486;BME280;49383;-25.924;28.194;2023-04-23T06:23:55;85138.75;;;24.67;28.50
55486;BME280;49383;-25.924;28.194;2023-04-23T06:26:21;85142.22;;;24.98;28.31
55486;BME280;49383;-25.924;28.194;2023-04-23T06:29:01;85140.18;;;24.86;28.28
55486;BME280;49383;-25.924;28.194;2023-04-23T06:31:12;85143.66;;;24.77;28.41
55486;BME280;49383;-25.924;28.194;2023-04-23T06:33:37;85144.20;;;25.11;28.39
55486;BME280;49383;-25.924;28.194;2023-04-23T06:36:04;85148.00;;;25.20;28.24
55486;BME280;49383;-25.924;28.194;2023-04-23T06:38:29;85149.36;;;24.97;28.22
55486;BME280;49383;-25.924;28.194;2023-04-23T06:40:55;85150.71;;;25.24;28.29
55486;BME280;49383;-25.924;28.194;2023-04-23T06:43:20;85151.72;;;24.75;28.25
55486;BME280;49383;-25.924;28.194;2023-04-23T06:45:46;85156.28;;;24.98;28.29
55486;BME280;49383;-25.924;28.194;2023-04-23T06:48:12;85158.24;;;25.30;28.34
55486;BME280;49383;-25.924;28.194;2023-04-23T06:50:38;85162.80;;;24.90;28.25
55486;BME280;49383;-25.924;28.194;2023-04-23T06:53:02;85163.86;;;25.40;28.30
55486;BME280;49383;-25.924;28.194;2023-04-23T06:55:29;85165.42;;;25.18;28.27
55486;BME280;49383;-25.924;28.194;2023-04-23T06:57:53;85165.33;;;25.02;28.23
55486;BME280;49383;-25.924;28.194;2023-04-23T07:00:21;85162.42;;;24.96;28.22
55486;BME280;49383;-25.924;28.194;2023-04-23T07:02:46;85161.54;;;25.04;28.05
55486;BME280;49383;-25.924;28.194;2023-04-23T07:05:11;85162.95;;;25.04;28.29
55486;BME280;49383;-25.924;28.194;2023-04-23T07:07:36;85165.36;;;25.30;28.21
55486;BME280;49383;-25.924;28.194;2023-04-23T07:10:01;85167.43;;;25.08;28.24
55486;BME280;49383;-25.924;28.194;2023-04-23T07:12:26;85170.11;;;25.15;28.22
55486;BME280;49383;-25.924;28.194;2023-04-23T07:14:52;85172.65;;;25.11;28.17
55486;BME280;49383;-25.924;28.194;2023-04-23T07:17:17;85179.08;;;25.15;28.24
55486;BME280;49383;-25.924;28.194;2023-04-23T07:19:45;85183.16;;;25.14;28.17
55486;BME280;49383;-25.924;28.194;2023-04-23T07:22:09;85184.87;;;25.15;28.20
55486;BME280;49383;-25.924;28.194;2023-04-23T07:24:34;85188.11;;;25.42;28.28
55486;BME280;49383;-25.924;28.194;2023-04-23T07:26:59;85180.95;;;25.29;28.01
55486;BME280;49383;-25.924;28.194;2023-04-23T07:29:24;85179.36;;;25.74;28.26
55486;BME280;49383;-25.924;28.194;2023-04-23T07:31:51;85179.53;;;25.24;28.28
55486;BME280;49383;-25.924;28.194;2023-04-23T07:34:16;85180.46;;;25.27;28.19
55486;BME280;49383;-25.924;28.194;2023-04-23T07:36:41;85180.44;;;25.28;28.16
55486;BME280;49383;-25.924;28.194;2023-04-23T07:39:07;85172.97;;;25.27;28.28
55486;BME280;49383;-25.924;28.194;2023-04-23T07:41:33;85177.41;;;25.28;28.38
55486;BME280;49383;-25.924;28.194;2023-04-23T07:43:59;85179.29;;;25.33;28.15
55486;BME280;49383;-25.924;28.194;2023-04-23T07:46:24;85177.85;;;25.55;28.22
55486;BME280;49383;-25.924;28.194;2023-04-23T07:48:50;85177.96;;;25.27;28.26
55486;BME280;49383;-25.924;28.194;2023-04-23T07:51:16;85175.67;;;25.48;28.30
55486;BME280;49383;-25.924;28.194;2023-04-23T07:53:42;85181.84;;;25.49;28.32
55486;BME280;49383;-25.924;28.194;2023-04-23T07:56:07;85177.70;;;25.28;28.26
55486;BME280;49383;-25.924;28.194;2023-04-23T07:58:32;85178.71;;;25.29;28.18
55486;BME280;49383;-25.924;28.194;2023-04-23T08:00:57;85177.41;;;25.56;28.31
55486;BME280;49383;-25.924;28.194;2023-04-23T08:03:23;85179.00;;;25.40;28.23
55486;BME280;49383;-25.924;28.194;2023-04-23T08:05:49;85184.62;;;25.39;28.25
55486;BME280;49383;-25.924;28.194;2023-04-23T08:08:14;85183.67;;;25.39;28.21
55486;BME280;49383;-25.924;28.194;2023-04-23T08:10:41;85185.69;;;25.62;28.21
55486;BME280;49383;-25.924;28.194;2023-04-23T08:13:06;85184.92;;;25.42;28.13
55486;BME280;49383;-25.924;28.194;2023-04-23T08:15:32;85188.07;;;25.67;28.20
55486;BME280;49383;-25.924;28.194;2023-04-23T08:17:57;85187.21;;;25.69;28.13
55486;BME280;49383;-25.924;28.194;2023-04-23T08:20:23;85189.35;;;25.70;27.93
55486;BME280;49383;-25.924;28.194;2023-04-23T08:22:50;85191.20;;;25.72;28.08
55486;BME280;49383;-25.924;28.194;2023-04-23T08:25:14;85192.93;;;25.50;27.98
55486;BME280;49383;-25.924;28.194;2023-04-23T08:27:40;85196.02;;;25.52;28.01
55486;BME280;49383;-25.924;28.194;2023-04-23T08:30:07;85197.07;;;25.75;28.05
55486;BME280;49383;-25.924;28.194;2023-04-23T08:32:32;85198.38;;;25.55;27.88
55486;BME280;49383;-25.924;28.194;2023-04-23T08:34:58;85196.45;;;25.55;27.93
55486;BME280;49383;-25.924;28.194;2023-04-23T08:37:24;85195.30;;;25.57;27.91
55486;BME280;49383;-25.924;28.194;2023-04-23T08:39:49;85197.72;;;25.58;27.90
55486;BME280;49383;-25.924;28.194;2023-04-23T08:42:23;85194.48;;;25.81;27.78
55486;BME280;49383;-25.924;28.194;2023-04-23T08:44:41;85192.46;;;25.82;27.66
55486;BME280;49383;-25.924;28.194;2023-04-23T08:47:07;85191.35;;;25.83;27.81
55486;BME280;49383;-25.924;28.194;2023-04-23T08:49:33;85189.10;;;25.62;27.85
55486;BME280;49383;-25.924;28.194;2023-04-23T08:52:05;85183.61;;;25.86;27.79
55486;BME280;49383;-25.924;28.194;2023-04-23T08:54:26;85185.49;;;25.65;27.67
55486;BME280;49383;-25.924;28.194;2023-04-23T08:56:50;85184.43;;;25.67;27.84
55486;BME280;49383;-25.924;28.194;2023-04-23T08:59:15;85179.42;;;25.68;27.52
55486;BME280;49383;-25.924;28.194;2023-04-23T09:01:41;85176.26;;;25.90;27.66
55486;BME280;49383;-25.924;28.194;2023-04-23T09:04:06;85175.72;;;25.68;27.52
55486;BME280;49383;-25.924;28.194;2023-04-23T09:06:32;85177.15;;;25.70;27.43
55486;BME280;49383;-25.924;28.194;2023-04-23T09:08:58;85181.14;;;25.93;27.59
55486;BME280;49383;-25.924;28.194;2023-04-23T09:11:27;85176.53;;;25.94;27.56
55486;BME280;49383;-25.924;28.194;2023-04-23T09:13:50;85177.30;;;25.73;27.54
55486;BME280;49383;-25.924;28.194;2023-04-23T09:16:15;85176.61;;;25.73;27.63
55486;BME280;49383;-25.924;28.194;2023-04-23T09:18:42;85173.53;;;25.73;27.57
55486;BME280;49383;-25.924;28.194;2023-04-23T09:21:07;85168.36;;;25.73;27.54
55486;BME280;49383;-25.924;28.194;2023-04-23T09:23:33;85165.61;;;25.74;27.48
55486;BME280;49383;-25.924;28.194;2023-04-23T09:25:59;85166.24;;;26.23;27.44
55486;BME280;49383;-25.924;28.194;2023-04-23T09:30:50;85163.53;;;25.74;27.36
55486;BME280;49383;-25.924;28.194;2023-04-23T09:33:17;85162.04;;;25.73;27.35
55486;BME280;49383;-25.924;28.194;2023-04-23T09:35:41;85159.62;;;25.73;27.36
55486;BME280;49383;-25.924;28.194;2023-04-23T09:38:07;85154.61;;;25.72;27.49
55486;BME280;49383;-25.924;28.194;2023-04-23T09:40:33;85148.27;;;25.72;27.39
55486;BME280;49383;-25.924;28.194;2023-04-23T09:42:58;85141.94;;;25.72;27.51
55486;BME280;49383;-25.924;28.194;2023-04-23T09:45:24;85136.59;;;25.95;27.35
55486;BME280;49383;-25.924;28.194;2023-04-23T09:47:51;85134.80;;;25.94;27.41
55486;BME280;49383;-25.924;28.194;2023-04-23T09:50:16;85137.08;;;26.21;27.42
55486;BME280;49383;-25.924;28.194;2023-04-23T09:52:41;85137.48;;;25.93;27.40
55486;BME280;49383;-25.924;28.194;2023-04-23T09:55:08;85134.42;;;25.92;27.43
55486;BME280;49383;-25.924;28.194;2023-04-23T09:57:36;85132.13;;;26.17;27.53
55486;BME280;49383;-25.924;28.194;2023-04-23T09:59:59;85129.08;;;25.68;27.52
55486;BME280;49383;-25.924;28.194;2023-04-23T10:02:27;85126.06;;;25.89;27.53
55486;BME280;49383;-25.924;28.194;2023-04-23T10:04:51;85127.98;;;25.89;27.56
55486;BME280;49383;-25.924;28.194;2023-04-23T10:07:17;85124.83;;;25.88;27.52
55486;BME280;49383;-25.924;28.194;2023-04-23T10:09:41;85123.52;;;25.64;27.59
55486;BME280;49383;-25.924;28.194;2023-04-23T10:12:07;85123.21;;;25.85;27.51
55486;BME280;49383;-25.924;28.194;2023-04-23T10:14:33;85119.17;;;25.84;27.54
55486;BME280;49383;-25.924;28.194;2023-04-23T10:17:00;85112.33;;;25.71;27.29
55486;BME280;49383;-25.924;28.194;2023-04-23T10:19:25;85108.29;;;25.93;27.17
55486;BME280;49383;-25.924;28.194;2023-04-23T10:21:53;85101.27;;;25.84;27.19
55486;BME280;49383;-25.924;28.194;2023-04-23T10:24:17;85099.94;;;25.79;27.29
55486;BME280;49383;-25.924;28.194;2023-04-23T10:26:42;85097.34;;;25.75;27.37
55486;BME280;49383;-25.924;28.194;2023-04-23T10:29:12;85098.74;;;25.73;27.32
55486;BME280;49383;-25.924;28.194;2023-04-23T10:31:34;85103.48;;;25.72;27.31
55486;BME280;49383;-25.924;28.194;2023-04-23T10:33:59;85102.57;;;26.19;27.34
55486;BME280;49383;-25.924;28.194;2023-04-23T10:36:25;85100.48;;;25.90;27.32
55486;BME280;49383;-25.924;28.194;2023-04-23T10:38:51;85096.38;;;25.89;27.34
55486;BME280;49383;-25.924;28.194;2023-04-23T10:41:17;85092.49;;;26.14;27.42
55486;BME280;49383;-25.924;28.194;2023-04-23T10:43:42;85092.67;;;25.86;27.25
55486;BME280;49383;-25.924;28.194;2023-04-23T10:50:59;85083.29;;;26.05;27.29
55486;BME280;49383;-25.924;28.194;2023-04-23T10:53:25;85083.51;;;25.96;27.29
55486;BME280;49383;-25.924;28.194;2023-04-23T10:55:55;85079.49;;;25.90;27.39
55486;BME280;49383;-25.924;28.194;2023-04-23T10:58:16;85079.31;;;25.60;27.35
55486;BME280;49383;-25.924;28.194;2023-04-23T11:00:44;85079.50;;;25.83;27.39
55486;BME280;49383;-25.924;28.194;2023-04-23T11:05:38;85063.80;;;25.51;27.25
55486;BME280;49383;-25.924;28.194;2023-04-23T11:08:05;85059.43;;;25.98;27.35
55486;BME280;49383;-25.924;28.194;2023-04-23T11:10:25;85056.07;;;25.74;27.42
55486;BME280;49383;-25.924;28.194;2023-04-23T11:12:51;85055.87;;;25.95;27.45
55486;BME280;49383;-25.924;28.194;2023-04-23T11:15:19;85051.88;;;25.71;27.34
55486;BME280;49383;-25.924;28.194;2023-04-23T11:20:11;85047.73;;;25.41;27.40
55486;BME280;49383;-25.924;28.194;2023-04-23T11:22:35;85043.57;;;25.66;27.50
55486;BME280;49383;-25.924;28.194;2023-04-23T11:25:01;85035.71;;;25.65;27.55
55486;BME280;49383;-25.924;28.194;2023-04-23T11:27:26;85034.03;;;25.64;27.53
55486;BME280;49383;-25.924;28.194;2023-04-23T11:29:52;85029.34;;;25.62;27.58
55486;BME280;49383;-25.924;28.194;2023-04-23T11:32:19;85027.79;;;25.60;27.57
55486;BME280;49383;-25.924;28.194;2023-04-23T11:34:45;85025.79;;;25.58;27.60
55486;BME280;49383;-25.924;28.194;2023-04-23T11:37:10;85017.81;;;25.57;27.57
55486;BME280;49383;-25.924;28.194;2023-04-23T11:39:35;85015.39;;;25.57;27.65
55486;BME280;49383;-25.924;28.194;2023-04-23T11:42:01;85011.89;;;25.55;27.62
55486;BME280;49383;-25.924;28.194;2023-04-23T11:44:26;85014.30;;;25.53;27.70
55486;BME280;49383;-25.924;28.194;2023-04-23T11:46:52;85010.33;;;25.74;27.68
55486;BME280;49383;-25.924;28.194;2023-04-23T11:49:19;85005.86;;;25.51;27.80
55486;BME280;49383;-25.924;28.194;2023-04-23T11:51:45;85003.11;;;25.49;27.72
55486;BME280;49383;-25.924;28.194;2023-04-23T11:54:11;85004.06;;;25.71;27.73
55486;BME280;49383;-25.924;28.194;2023-04-23T11:56:35;85000.85;;;25.47;27.78
55486;BME280;49383;-25.924;28.194;2023-04-23T11:59:01;84996.97;;;25.68;27.72
55486;BME280;49383;-25.924;28.194;2023-04-23T12:01:26;84998.87;;;25.46;27.70
55486;BME280;49383;-25.924;28.194;2023-04-23T12:03:52;84994.55;;;25.67;27.77
55486;BME280;49383;-25.924;28.194;2023-04-23T12:06:18;84990.27;;;25.43;27.75
55486;BME280;49383;-25.924;28.194;2023-04-23T12:08:46;84990.72;;;25.64;27.82
55486;BME280;49383;-25.924;28.194;2023-04-23T12:11:11;84988.52;;;25.63;27.82
55486;BME280;49383;-25.924;28.194;2023-04-23T12:13:38;84987.21;;;25.40;27.87
55486;BME280;49383;-25.924;28.194;2023-04-23T12:16:02;84979.54;;;25.38;27.84
55486;BME280;49383;-25.924;28.194;2023-04-23T12:18:28;84977.51;;;25.60;27.82
55486;BME280;49383;-25.924;28.194;2023-04-23T12:20:53;84980.42;;;25.37;27.82
55486;BME280;49383;-25.924;28.194;2023-04-23T12:25:46;84980.09;;;25.34;27.80
55486;BME280;49383;-25.924;28.194;2023-04-23T12:28:10;84976.12;;;25.34;27.81
55486;BME280;49383;-25.924;28.194;2023-04-23T12:30:42;84973.10;;;25.55;27.87
55486;BME280;49383;-25.924;28.194;2023-04-23T12:33:03;84975.11;;;25.32;27.90
55486;BME280;49383;-25.924;28.194;2023-04-23T12:35:38;84972.45;;;25.32;27.90
55486;BME280;49383;-25.924;28.194;2023-04-23T12:37:54;84968.48;;;25.54;27.82
55486;BME280;49383;-25.924;28.194;2023-04-23T12:40:19;84973.92;;;25.53;27.80
55486;BME280;49383;-25.924;28.194;2023-04-23T12:42:45;84970.61;;;25.51;27.83
55486;BME280;49383;-25.924;28.194;2023-04-23T12:45:11;84973.80;;;25.28;27.80